createdAt,value
2017-07-20T00:00:22.610Z,6.87
2017-07-20T00:02:50.167Z,7.80
2017-07-20T00:05:17.733Z,6.90
2017-07-20T00:07:45.330Z,7.07
2017-07-20T00:10:12.893Z,7.93
2017-07-20T00:12:40.478Z,6.60
2017-07-20T00:15:08.063Z,7.60
2017-07-20T00:17:35.625Z,8.47
2017-07-20T00:20:03.222Z,7.57
2017-07-20T00:22:30.810Z,8.43
2017-07-20T00:24:58.423Z,8.50
2017-07-20T00:27:25.995Z,7.80
2017-07-20T00:29:53.591Z,7.40
2017-07-20T00:32:21.933Z,7.67
2017-07-20T00:34:49.521Z,9.03
2017-07-20T00:37:17.123Z,8.00
2017-07-20T00:39:44.684Z,8.80
2017-07-20T00:42:12.247Z,9.57
2017-07-20T00:44:39.868Z,9.10
2017-07-20T00:47:07.406Z,8.23
2017-07-20T00:49:34.975Z,8.80
2017-07-20T00:52:03.348Z,7.17
2017-07-20T00:54:30.913Z,8.10
2017-07-20T00:56:58.499Z,8.37
2017-07-20T00:59:26.082Z,7.20
2017-07-20T01:01:53.643Z,9.10
2017-07-20T01:04:21.236Z,7.33
2017-07-20T01:06:48.818Z,8.10
2017-07-20T01:09:16.436Z,7.90
2017-07-20T01:11:43.999Z,7.90
2017-07-20T01:14:11.602Z,8.17
2017-07-20T01:16:39.164Z,9.30
2017-07-20T01:19:06.753Z,9.40
2017-07-20T01:21:34.362Z,10.00
2017-07-20T01:24:01.962Z,10.53
2017-07-20T01:26:29.562Z,10.93
2017-07-20T01:28:57.163Z,8.63
2017-07-20T01:31:24.742Z,9.83
2017-07-20T01:33:52.345Z,9.27
2017-07-20T01:36:19.924Z,8.40
2017-07-20T01:38:47.484Z,8.63
2017-07-20T01:41:15.066Z,9.10
2017-07-20T01:43:42.617Z,8.37
2017-07-20T01:46:10.197Z,9.17
2017-07-20T01:48:37.915Z,8.83
2017-07-20T01:51:05.510Z,8.63
2017-07-20T01:53:33.074Z,9.30
2017-07-20T01:56:00.636Z,9.83
2017-07-20T01:58:28.225Z,9.40
2017-07-20T02:00:55.768Z,10.13
2017-07-20T02:03:23.379Z,10.03
2017-07-20T02:05:50.941Z,9.33
2017-07-20T02:08:18.507Z,10.30
2017-07-20T02:10:46.098Z,10.13
2017-07-20T02:13:13.663Z,9.87
2017-07-20T02:15:41.259Z,9.90
2017-07-20T02:18:09.589Z,10.50
2017-07-20T02:20:37.151Z,11.40
2017-07-20T02:23:04.755Z,11.07
2017-07-20T02:25:32.338Z,11.37
2017-07-20T02:27:59.906Z,11.33
2017-07-20T02:30:27.498Z,11.67
2017-07-20T02:32:55.055Z,10.17
2017-07-20T02:35:22.638Z,9.87
2017-07-20T02:37:50.210Z,9.90
2017-07-20T02:40:17.767Z,10.13
2017-07-20T02:42:45.358Z,10.27
2017-07-20T02:45:12.934Z,10.80
2017-07-20T02:47:40.526Z,10.40
2017-07-20T02:50:08.091Z,9.90
2017-07-20T02:52:35.762Z,9.90
2017-07-20T02:55:03.336Z,9.37
2017-07-20T02:57:31.667Z,9.90
2017-07-20T02:59:59.262Z,10.47
2017-07-20T03:02:27.711Z,10.53
2017-07-20T03:04:55.291Z,10.17
2017-07-20T03:07:22.882Z,10.40
2017-07-20T03:09:51.208Z,10.70
2017-07-20T03:12:18.869Z,10.23
2017-07-20T03:14:46.493Z,10.13
2017-07-20T03:17:14.061Z,10.47
2017-07-20T03:19:42.407Z,11.37
2017-07-20T03:22:21.758Z,11.43
2017-07-20T03:24:49.335Z,11.20
2017-07-20T03:27:17.674Z,11.50
2017-07-20T03:29:45.258Z,10.97
2017-07-20T03:32:13.622Z,11.17
2017-07-20T03:34:41.191Z,11.27
2017-07-20T03:37:08.758Z,10.77
2017-07-20T03:39:37.133Z,11.00
2017-07-20T03:42:04.711Z,10.40
2017-07-20T03:44:32.321Z,9.83
2017-07-20T03:46:59.903Z,11.67
2017-07-20T03:49:27.499Z,10.43
2017-07-20T03:51:55.154Z,10.87
2017-07-20T03:54:22.727Z,9.50
2017-07-20T03:56:51.054Z,10.77
2017-07-20T03:59:18.653Z,10.60
2017-07-20T04:01:46.975Z,10.70
2017-07-20T04:04:14.561Z,10.67
2017-07-20T04:06:42.142Z,10.50
2017-07-20T04:09:09.718Z,10.07
2017-07-20T04:11:37.304Z,11.20
2017-07-20T04:14:04.869Z,10.53
2017-07-20T04:16:32.449Z,11.07
2017-07-20T04:19:00.043Z,10.47
2017-07-20T04:21:27.681Z,10.77
2017-07-20T04:23:55.255Z,11.37
2017-07-20T04:26:22.824Z,11.33
2017-07-20T04:28:50.427Z,10.50
2017-07-20T04:31:17.998Z,11.37
2017-07-20T04:33:45.567Z,12.47
2017-07-20T04:36:13.150Z,11.30
2017-07-20T04:38:40.723Z,10.80
2017-07-20T04:41:08.319Z,10.27
2017-07-20T04:43:35.914Z,11.53
2017-07-20T04:46:03.492Z,9.97
2017-07-20T04:48:31.075Z,9.43
2017-07-20T04:50:58.676Z,9.53
2017-07-20T04:53:26.246Z,10.23
2017-07-20T04:55:53.840Z,9.90
2017-07-20T04:58:21.410Z,10.70
2017-07-20T05:00:49.003Z,11.70
2017-07-20T05:03:16.575Z,12.53
2017-07-20T05:05:44.274Z,13.13
2017-07-20T05:08:11.855Z,14.20
2017-07-20T05:10:39.438Z,14.30
2017-07-20T05:13:07.044Z,14.20
2017-07-20T05:15:34.615Z,12.93
2017-07-20T05:18:02.195Z,11.33
2017-07-20T05:20:29.780Z,12.10
2017-07-20T05:22:57.409Z,12.20
2017-07-20T05:25:24.970Z,12.60
2017-07-20T05:27:52.568Z,13.47
2017-07-20T05:30:20.190Z,12.87
2017-07-20T05:32:47.774Z,12.90
2017-07-20T05:35:15.403Z,12.50
2017-07-20T05:37:42.959Z,11.93
2017-07-20T05:40:10.584Z,12.80
2017-07-20T05:42:38.924Z,11.60
2017-07-20T05:45:06.493Z,11.87
2017-07-20T05:47:34.082Z,11.87
2017-07-20T05:50:02.416Z,11.27
2017-07-20T05:52:30.042Z,11.20
2017-07-20T05:54:58.394Z,11.80
2017-07-20T05:57:25.983Z,10.10
2017-07-20T05:59:53.554Z,9.33
2017-07-20T06:02:21.119Z,9.30
2017-07-20T06:04:48.710Z,8.80
2017-07-20T06:07:16.302Z,8.50
2017-07-20T06:09:43.862Z,8.60
2017-07-20T06:12:11.577Z,8.43
2017-07-20T06:14:39.127Z,9.00
2017-07-20T06:17:06.704Z,8.07
2017-07-20T06:19:34.356Z,6.93
2017-07-20T06:22:01.938Z,7.10
2017-07-20T06:24:29.521Z,7.60
2017-07-20T06:26:57.096Z,8.53
2017-07-20T06:29:24.743Z,8.73
2017-07-20T06:31:52.310Z,7.40
2017-07-20T06:34:19.929Z,7.37
2017-07-20T06:36:47.511Z,7.93
2017-07-20T06:39:15.077Z,6.87
2017-07-20T06:41:42.653Z,6.40
2017-07-20T06:44:10.268Z,5.93
2017-07-20T06:46:38.746Z,5.60
2017-07-20T06:49:06.402Z,5.17
2017-07-20T06:51:33.998Z,5.33
2017-07-20T06:54:01.661Z,5.07
2017-07-20T06:56:29.248Z,5.30
2017-07-20T06:58:56.846Z,5.43
2017-07-20T07:01:24.490Z,4.30
2017-07-20T07:03:52.196Z,5.20
2017-07-20T07:06:19.749Z,5.23
2017-07-20T07:08:47.313Z,5.13
2017-07-20T07:11:14.908Z,4.50
2017-07-20T07:13:42.488Z,3.90
2017-07-20T07:16:10.130Z,4.47
2017-07-20T07:18:37.897Z,4.57
2017-07-20T07:21:05.483Z,4.37
2017-07-20T07:23:33.098Z,4.03
2017-07-20T07:26:00.678Z,4.47
2017-07-20T07:28:28.275Z,4.60
2017-07-20T07:30:56.602Z,4.40
2017-07-20T07:33:24.391Z,5.30
2017-07-20T07:35:51.939Z,5.00
2017-07-20T07:38:19.765Z,4.67
2017-07-20T07:40:47.353Z,5.07
2017-07-20T07:43:14.915Z,5.00
2017-07-20T07:45:42.738Z,5.53
2017-07-20T07:48:10.330Z,5.43
2017-07-20T07:50:37.958Z,5.33
2017-07-20T07:53:05.521Z,5.50
2017-07-20T07:55:33.115Z,5.43
2017-07-20T07:58:00.700Z,5.10
2017-07-20T08:00:28.309Z,5.40
2017-07-20T08:02:55.889Z,5.80
2017-07-20T08:05:23.511Z,5.73
2017-07-20T08:07:51.088Z,6.40
2017-07-20T08:10:18.661Z,5.50
2017-07-20T08:12:46.340Z,6.00
2017-07-20T08:15:14.773Z,5.90
2017-07-20T08:17:42.333Z,7.30
2017-07-20T08:20:09.910Z,6.80
2017-07-20T08:22:37.501Z,6.50
2017-07-20T08:25:05.110Z,6.93
2017-07-20T08:27:32.676Z,6.30
2017-07-20T08:30:00.289Z,6.80
2017-07-20T08:32:27.857Z,6.10
2017-07-20T08:34:55.418Z,6.30
2017-07-20T08:37:23.033Z,6.70
2017-07-20T08:39:50.934Z,5.90
2017-07-20T08:42:18.498Z,6.63
2017-07-20T08:44:46.089Z,6.23
2017-07-20T08:47:13.653Z,7.50
2017-07-20T08:49:41.232Z,6.70
2017-07-20T08:52:08.802Z,7.50
2017-07-20T08:54:36.401Z,6.73
2017-07-20T08:57:03.977Z,6.50
2017-07-20T08:59:31.589Z,7.67
2017-07-20T09:02:00.005Z,6.80
2017-07-20T09:04:27.561Z,7.13
2017-07-20T09:06:55.138Z,7.47
2017-07-20T09:09:22.730Z,7.80
2017-07-20T09:11:50.306Z,7.57
2017-07-20T09:14:17.920Z,7.93
2017-07-20T09:16:45.478Z,6.70
2017-07-20T09:19:13.054Z,6.87
2017-07-20T09:21:40.630Z,7.40
2017-07-20T09:24:08.210Z,8.13
2017-07-20T09:26:35.810Z,7.97
2017-07-20T09:29:03.379Z,7.27
2017-07-20T09:31:30.978Z,8.40
2017-07-20T09:33:58.582Z,7.80
2017-07-20T09:36:26.926Z,8.87
2017-07-20T09:38:54.490Z,7.87
2017-07-20T09:41:22.075Z,8.10
2017-07-20T09:43:50.413Z,8.37
2017-07-20T09:46:17.998Z,8.73
2017-07-20T09:48:45.670Z,9.13
2017-07-20T09:51:14.090Z,7.90
2017-07-20T09:53:41.682Z,9.80
2017-07-20T09:56:09.233Z,8.73
2017-07-20T09:58:36.834Z,9.00
2017-07-20T10:01:05.178Z,9.90
2017-07-20T10:03:32.746Z,10.20
2017-07-20T10:06:00.379Z,10.40
2017-07-20T10:08:27.968Z,8.77
2017-07-20T10:10:55.577Z,8.93
2017-07-20T10:13:23.970Z,8.70
2017-07-20T10:15:51.547Z,9.37
2017-07-20T10:18:19.150Z,8.57
2017-07-20T10:20:46.718Z,9.20
2017-07-20T10:23:15.272Z,9.00
2017-07-20T10:25:42.872Z,9.17
2017-07-20T10:28:11.215Z,10.03
2017-07-20T10:30:38.831Z,9.43
2017-07-20T10:33:06.415Z,9.97
2017-07-20T10:35:33.992Z,9.00
2017-07-20T10:38:01.570Z,9.07
2017-07-20T10:40:29.215Z,9.63
2017-07-20T10:42:56.807Z,9.43
2017-07-20T10:45:24.374Z,9.93
2017-07-20T10:47:51.964Z,9.60
2017-07-20T10:50:19.562Z,9.80
2017-07-20T10:52:47.121Z,9.17
2017-07-20T10:55:14.749Z,10.10
2017-07-20T10:57:42.334Z,9.73
2017-07-20T11:00:10.137Z,9.87
2017-07-20T11:02:37.944Z,9.10
2017-07-20T11:05:05.506Z,9.70
2017-07-20T11:07:33.097Z,9.07
2017-07-20T11:10:00.713Z,9.40
2017-07-20T11:12:28.273Z,10.27
2017-07-20T11:14:55.844Z,9.37
2017-07-20T11:17:23.423Z,9.33
2017-07-20T11:19:51.028Z,9.30
2017-07-20T11:22:18.618Z,10.00
2017-07-20T11:24:46.211Z,8.97
2017-07-20T11:27:13.777Z,9.00
2017-07-20T11:29:41.343Z,8.83
2017-07-20T11:32:09.714Z,9.20
2017-07-20T11:34:37.288Z,9.20
2017-07-20T11:37:04.898Z,8.00
2017-07-20T11:39:32.534Z,8.83
2017-07-20T11:42:00.098Z,8.60
2017-07-20T11:44:27.773Z,8.50
2017-07-20T11:46:56.147Z,9.00
2017-07-20T11:49:23.718Z,8.33
2017-07-20T11:51:52.050Z,8.77
2017-07-20T11:54:19.644Z,9.10
2017-07-20T11:56:47.254Z,9.10
2017-07-20T11:59:14.853Z,9.43
2017-07-20T12:01:42.417Z,9.00
2017-07-20T12:04:09.994Z,9.10
2017-07-20T12:06:37.606Z,8.17
2017-07-20T12:09:05.262Z,7.83
2017-07-20T12:11:32.839Z,8.27
2017-07-20T12:14:00.431Z,7.00
2017-07-20T12:16:28.008Z,8.07
2017-07-20T12:18:56.719Z,8.50
2017-07-20T12:21:24.298Z,7.10
2017-07-20T12:23:51.980Z,7.30
2017-07-20T12:26:19.808Z,6.00
2017-07-20T12:28:48.159Z,6.60
2017-07-20T12:31:15.741Z,6.10
2017-07-20T12:33:43.305Z,6.77
2017-07-20T12:36:11.140Z,6.83
2017-07-20T12:38:38.713Z,6.83
2017-07-20T12:41:07.054Z,7.57
2017-07-20T12:43:34.615Z,7.17
2017-07-20T12:46:02.278Z,6.13
2017-07-20T12:48:29.924Z,6.80
2017-07-20T12:50:57.482Z,6.47
2017-07-20T12:53:25.085Z,5.97
2017-07-20T12:55:52.655Z,6.40
2017-07-20T12:58:20.229Z,4.93
2017-07-20T13:00:47.869Z,4.00
2017-07-20T13:03:15.434Z,3.53
2017-07-20T13:05:43.015Z,3.43
2017-07-20T13:08:11.390Z,3.87
2017-07-20T13:10:39.864Z,3.80
2017-07-20T13:13:07.444Z,4.13
2017-07-20T13:15:35.042Z,3.30
2017-07-20T13:18:02.645Z,3.30
2017-07-20T13:20:30.250Z,4.20
2017-07-20T13:22:57.803Z,3.23
2017-07-20T13:25:25.444Z,3.53
2017-07-20T13:27:53.001Z,3.20
2017-07-20T13:30:21.365Z,3.10
2017-07-20T13:32:48.922Z,3.03
2017-07-20T13:35:16.498Z,3.10
2017-07-20T13:37:44.861Z,3.27
2017-07-20T13:40:12.421Z,2.80
2017-07-20T13:42:40.023Z,3.07
2017-07-20T13:45:08.641Z,2.67
2017-07-20T13:47:36.242Z,2.77
2017-07-20T13:50:03.934Z,2.87
2017-07-20T13:52:31.517Z,2.80
2017-07-20T13:54:59.081Z,2.40
2017-07-20T13:57:26.690Z,2.50
2017-07-20T13:59:54.299Z,2.70
2017-07-20T14:02:21.880Z,2.37
2017-07-20T14:04:49.494Z,2.90
2017-07-20T14:07:18.721Z,2.60
2017-07-20T14:09:46.296Z,2.77
2017-07-20T14:12:13.938Z,2.23
2017-07-20T14:14:41.527Z,2.63
2017-07-20T14:17:09.118Z,2.37
2017-07-20T14:19:36.709Z,2.50
2017-07-20T14:22:04.321Z,2.93
2017-07-20T14:24:31.873Z,2.43
2017-07-20T14:26:59.442Z,2.57
2017-07-20T14:29:27.030Z,2.30
2017-07-20T14:31:57.339Z,2.57
2017-07-20T14:34:25.107Z,2.13
2017-07-20T14:36:52.714Z,2.20
2017-07-20T14:39:25.012Z,2.40
2017-07-20T14:41:52.660Z,2.30
2017-07-20T14:44:20.550Z,2.23
2017-07-20T14:46:48.133Z,2.30
2017-07-20T14:49:15.697Z,2.07
2017-07-20T14:51:43.257Z,2.43
2017-07-20T14:54:10.871Z,2.40
2017-07-20T14:56:38.489Z,2.63
2017-07-20T14:59:06.074Z,2.73
2017-07-20T15:01:34.454Z,2.63
2017-07-20T15:04:02.010Z,2.73
2017-07-20T15:06:30.374Z,2.47
2017-07-20T15:08:58.702Z,2.60
2017-07-20T15:11:26.329Z,2.60
2017-07-20T15:13:54.684Z,2.80
2017-07-20T15:16:22.256Z,2.43
2017-07-20T15:18:50.598Z,2.50
2017-07-20T15:21:18.317Z,2.60
2017-07-20T15:23:46.638Z,2.43
2017-07-20T15:26:14.233Z,2.60
2017-07-20T15:28:41.823Z,2.90
2017-07-20T15:31:09.393Z,2.40
2017-07-20T15:33:36.996Z,2.43
2017-07-20T15:36:04.555Z,2.50
2017-07-20T15:38:32.295Z,2.93
2017-07-20T15:40:59.901Z,2.80
2017-07-20T15:43:27.520Z,2.60
2017-07-20T15:45:55.080Z,2.80
2017-07-20T15:48:22.643Z,3.00
2017-07-20T15:50:50.261Z,2.60
2017-07-20T15:53:17.827Z,2.50
2017-07-20T15:55:46.167Z,2.63
2017-07-20T15:58:13.749Z,2.70
2017-07-20T16:00:41.322Z,3.00
2017-07-20T16:03:09.973Z,3.43
2017-07-20T16:05:37.521Z,2.60
2017-07-20T16:08:05.096Z,2.67
2017-07-20T16:10:32.699Z,2.47
2017-07-20T16:13:00.312Z,2.80
2017-07-20T16:15:27.924Z,2.63
2017-07-20T16:17:56.265Z,3.47
2017-07-20T16:20:23.829Z,2.80
2017-07-20T16:22:51.435Z,2.80
2017-07-20T16:25:19.074Z,2.70
2017-07-20T16:27:47.419Z,2.83
2017-07-20T16:30:14.990Z,2.80
2017-07-20T16:32:42.583Z,3.00
2017-07-20T16:35:10.928Z,2.80
2017-07-20T16:37:38.556Z,3.03
2017-07-20T16:40:06.150Z,2.83
2017-07-20T16:42:33.706Z,3.00
2017-07-20T16:45:01.485Z,2.63
2017-07-20T16:47:29.069Z,3.00
2017-07-20T16:49:57.409Z,2.93
2017-07-20T16:52:24.977Z,2.80
2017-07-20T16:54:52.556Z,2.90
2017-07-20T16:57:20.218Z,2.97
2017-07-20T16:59:47.846Z,2.90
2017-07-20T17:02:15.463Z,2.67
2017-07-20T17:04:43.794Z,2.83
2017-07-20T17:07:11.876Z,3.43
2017-07-20T17:09:39.467Z,3.13
2017-07-20T17:12:07.048Z,2.60
2017-07-20T17:14:35.374Z,3.00
2017-07-20T17:17:02.957Z,2.77
2017-07-20T17:19:30.538Z,3.00
2017-07-20T17:21:58.098Z,2.50
2017-07-20T17:24:26.450Z,3.17
2017-07-20T17:26:54.013Z,2.57
2017-07-20T17:29:21.625Z,2.80
2017-07-20T17:31:49.188Z,2.57
2017-07-20T17:34:16.758Z,2.73
2017-07-20T17:36:45.596Z,2.90
2017-07-20T17:39:13.602Z,2.97
2017-07-20T17:41:41.173Z,2.57
2017-07-20T17:44:09.551Z,3.10
2017-07-20T17:46:37.168Z,2.90
2017-07-20T17:49:05.464Z,2.90
2017-07-20T17:51:33.818Z,2.30
2017-07-20T17:54:01.486Z,2.60
2017-07-20T17:56:30.510Z,2.80
2017-07-20T17:58:58.074Z,2.70
2017-07-20T18:01:25.675Z,2.73
2017-07-20T18:03:53.251Z,3.03
2017-07-20T18:06:20.844Z,2.73
2017-07-20T18:08:49.226Z,2.90
2017-07-20T18:11:17.547Z,3.00
2017-07-20T18:13:45.158Z,2.80
2017-07-20T18:16:12.726Z,3.03
2017-07-20T18:18:40.338Z,3.07
2017-07-20T18:21:07.922Z,3.40
2017-07-20T18:23:35.553Z,3.30
2017-07-20T18:26:03.134Z,3.20
2017-07-20T18:28:30.677Z,3.10
2017-07-20T18:30:58.359Z,3.00
2017-07-20T18:33:25.942Z,3.63
2017-07-20T18:35:54.332Z,3.10
2017-07-20T18:38:21.946Z,3.03
2017-07-20T18:40:49.545Z,3.23
2017-07-20T18:43:17.148Z,3.83
2017-07-20T18:45:44.722Z,3.23
2017-07-20T18:48:12.340Z,3.00
2017-07-20T18:50:40.703Z,3.00
2017-07-20T18:53:08.271Z,3.00
2017-07-20T18:55:35.936Z,2.97
2017-07-20T18:58:03.527Z,3.00
2017-07-20T19:00:31.114Z,2.97
2017-07-20T19:02:58.679Z,2.73
2017-07-20T19:05:26.305Z,2.87
2017-07-20T19:07:53.950Z,2.70
2017-07-20T19:10:22.318Z,3.30
2017-07-20T19:12:51.188Z,3.50
2017-07-20T19:15:18.796Z,3.10
2017-07-20T19:17:46.378Z,2.50
2017-07-20T19:20:14.026Z,3.00
2017-07-20T19:22:42.375Z,3.50
2017-07-20T19:25:09.935Z,2.63
2017-07-20T19:27:37.529Z,3.27
2017-07-20T19:30:05.105Z,3.00
2017-07-20T19:32:32.678Z,2.53
2017-07-20T19:35:00.267Z,2.60
2017-07-20T19:37:27.837Z,2.80
2017-07-20T19:39:55.404Z,2.63
2017-07-20T19:42:23.047Z,2.70
2017-07-20T19:44:50.619Z,2.73
2017-07-20T19:47:18.212Z,2.50
2017-07-20T19:49:45.822Z,2.47
2017-07-20T19:52:13.395Z,2.20
2017-07-20T19:54:41.132Z,2.50
2017-07-20T19:57:08.713Z,2.13
2017-07-20T19:59:36.268Z,2.40
2017-07-20T20:02:03.863Z,2.40
2017-07-20T20:04:31.435Z,3.43
2017-07-20T20:06:59.048Z,2.80
2017-07-20T20:09:26.719Z,2.90
2017-07-20T20:11:54.283Z,3.40
2017-07-20T20:14:21.910Z,3.20
2017-07-20T20:16:49.477Z,3.33
2017-07-20T20:19:17.049Z,3.33
2017-07-20T20:21:44.642Z,4.07
2017-07-20T20:24:12.231Z,3.13
2017-07-20T20:26:39.817Z,3.30
2017-07-20T20:29:07.394Z,3.03
2017-07-20T20:31:34.983Z,3.37
2017-07-20T20:34:02.548Z,3.00
2017-07-20T20:36:30.143Z,3.20
2017-07-20T20:38:57.716Z,3.00
2017-07-20T20:41:25.298Z,3.27
2017-07-20T20:43:52.964Z,3.20
2017-07-20T20:46:20.590Z,3.53
2017-07-20T20:48:48.175Z,3.20
2017-07-20T20:51:15.739Z,3.17
2017-07-20T20:53:43.305Z,3.03
2017-07-20T20:56:10.893Z,3.10
2017-07-20T20:58:38.465Z,3.23
2017-07-20T21:01:06.134Z,2.70
2017-07-20T21:03:34.480Z,3.03
2017-07-20T21:06:02.082Z,2.63
2017-07-20T21:08:30.429Z,2.20
2017-07-20T21:10:58.003Z,2.00
2017-07-20T21:13:25.626Z,1.70
2017-07-20T21:15:53.185Z,2.10
2017-07-20T21:18:20.764Z,1.80
2017-07-20T21:20:48.338Z,1.87
2017-07-20T21:23:15.931Z,1.97
2017-07-20T21:25:43.574Z,2.13
2017-07-20T21:28:11.141Z,2.03
2017-07-20T21:30:38.725Z,1.83
2017-07-20T21:33:07.048Z,2.00
2017-07-20T21:35:34.610Z,2.30
2017-07-20T21:38:02.210Z,1.90
2017-07-20T21:40:29.779Z,2.20
2017-07-20T21:42:57.363Z,2.40
2017-07-20T21:45:24.925Z,2.50
2017-07-20T21:47:52.526Z,2.40
2017-07-20T21:50:20.141Z,2.77
2017-07-20T21:52:47.741Z,2.37
2017-07-20T21:55:15.325Z,2.60
2017-07-20T21:57:42.884Z,2.40
2017-07-20T22:00:11.318Z,2.77
2017-07-20T22:02:38.920Z,3.00
2017-07-20T22:05:07.458Z,3.10
2017-07-20T22:07:35.062Z,3.17
2017-07-20T22:10:02.621Z,3.20
2017-07-20T22:12:30.201Z,3.40
2017-07-20T22:14:58.718Z,3.13
2017-07-20T22:17:26.308Z,3.40
2017-07-20T22:19:53.930Z,3.40
2017-07-20T22:22:21.508Z,3.60
2017-07-20T22:24:49.153Z,3.97
2017-07-20T22:27:17.573Z,3.43
2017-07-20T22:29:45.132Z,3.80
2017-07-20T22:32:12.766Z,3.60
2017-07-20T22:34:40.526Z,3.87
2017-07-20T22:37:08.146Z,3.53
2017-07-20T22:39:35.719Z,3.60
2017-07-20T22:42:03.541Z,3.60
2017-07-20T22:44:31.122Z,4.30
2017-07-20T22:46:58.673Z,4.40
2017-07-20T22:49:26.395Z,3.83
2017-07-20T22:51:53.958Z,3.87
2017-07-20T22:54:21.544Z,3.50
2017-07-20T22:56:49.130Z,3.57
2017-07-20T22:59:16.715Z,3.53
2017-07-20T23:01:44.276Z,3.97
2017-07-20T23:04:11.886Z,4.30
2017-07-20T23:06:39.478Z,4.67
2017-07-20T23:09:07.051Z,4.10
2017-07-20T23:11:34.653Z,3.97
2017-07-20T23:14:02.974Z,3.73
2017-07-20T23:16:30.562Z,3.90
2017-07-20T23:18:58.159Z,4.03
2017-07-20T23:21:25.725Z,4.03
2017-07-20T23:23:53.302Z,3.13
2017-07-20T23:26:20.878Z,4.40
2017-07-20T23:28:48.548Z,5.40
2017-07-20T23:31:16.139Z,4.03
2017-07-20T23:33:43.752Z,3.83
2017-07-20T23:36:11.318Z,3.93
2017-07-20T23:38:38.904Z,3.70
2017-07-20T23:41:06.510Z,4.00
2017-07-20T23:43:34.090Z,4.00
2017-07-20T23:46:01.653Z,3.77
2017-07-20T23:48:29.238Z,3.90
2017-07-20T23:50:56.814Z,3.80
2017-07-20T23:53:25.153Z,4.30
2017-07-20T23:55:52.763Z,3.50
2017-07-20T23:58:20.343Z,4.40
